Time;durP1;ratioP1;P1;durP2;ratioP2;P2;SDS_P1;SDS_P2;PMS_P1;PMS_P2;Temp;Humidity;BMP_temperature;BMP_pressure;BME280_temperature;BME280_humidity;BME280_pressure;Samples;Min_cycle;Max_cycle;Signal;HPM_P1;HPM_P2
2021/09/30 00:00:24;;;;;;;;;;;;;;;20.83;46.76;96643.81;1043733;28;1150;-54
2021/09/30 00:00:54;;;;;;;;;;;;;;;20.82;46.85;96637.75;1045071;28;1601;-55
2021/09/30 00:01:25;;;;;;;;;;;;;;;20.82;46.58;96637.75;1049557;28;1209;-54
2021/09/30 00:01:55;;;;;;;;;;;;;;;20.82;46.46;96637.75;1050856;28;1155;-51
2021/09/30 00:02:25;;;;;;;;;;;;;;;20.82;46.70;96634.31;1049400;28;2491;-55
2021/09/30 00:02:55;;;;;;;;;;;;;;;20.81;46.77;96641.41;1051884;28;1108;-56
2021/09/30 00:03:26;;;;;;;;;;;;;;;20.82;46.76;96637.75;1052796;28;1145;-57
2021/09/30 00:03:56;;;;;;;;;;;;;;;20.83;46.56;96638.53;1052309;28;1048;-56
2021/09/30 00:04:26;;;;;;;;;;;;;;;20.83;46.75;96641.97;1047888;28;1440;-56
2021/09/30 00:04:57;;;;;;;;;;;;;;;20.82;46.50;96640.38;1051221;28;1085;-56
2021/09/30 00:05:27;;;;;;;;;;;;;;;20.82;46.64;96635.09;1050949;28;1166;-55
2021/09/30 00:05:57;;;;;;;;;;;;;;;20.81;46.91;96638.78;1050770;28;1514;-55
2021/09/30 00:06:28;;;;;;;;;;;;;;;20.82;46.76;96643.00;1048622;28;1118;-54
2021/09/30 00:06:59;;;;;;;;;;;;;;;20.82;46.58;96642.22;1051016;28;1257;-54
2021/09/30 00:07:36;;;;;;;;;;;;;;;20.81;46.72;96641.41;1048615;28;2009;-56
2021/09/30 00:08:06;;;;;;;;;;;;;;;20.80;46.66;96639.84;1045289;28;2116;-55
2021/09/30 00:08:36;;;;;;;;;;;;;;;20.80;46.57;96642.47;1049084;28;2211;-56
2021/09/30 00:09:07;;;;;;;;;;;;;;;20.79;46.65;96638.22;1049058;28;1744;-57
2021/09/30 00:09:39;;;;;;;;;;;;;;;20.78;46.49;96639.28;1052885;28;1030;-57
2021/09/30 00:10:10;;;;;;;;;;;;;;;20.80;46.44;96645.09;1052474;28;956;-50
2021/09/30 00:10:49;;;;;;;;;;;;;;;20.79;46.62;96642.72;1049702;28;1333;-57
2021/09/30 00:11:27;;;;;;;;;;;;;;;20.78;46.64;96638.50;1051854;28;1280;-53
2021/09/30 00:12:07;;;;;;;;;;;;;;;20.77;46.68;96637.69;1050381;28;1056;-54
2021/09/30 00:12:43;;;;;;;;;;;;;;;20.77;46.40;96645.59;1048228;28;2013;-53
2021/09/30 00:14:39;;;;;;;;;;;;;;;20.76;46.60;96638.75;1051224;28;1115;-52
2021/09/30 00:15:07;;;;;;;;;;;;;;;20.77;46.51;96644.81;1046051;28;1315;-57
2021/09/30 00:18:09;;;;;;;;;;;;;;;20.76;46.47;96644.03;1048055;28;1827;-53
2021/09/30 00:32:58;;;;;;;;;;;;;;;20.70;46.11;96644.25;1047000;28;2229;-55
2021/09/30 00:34:21;;;;;;;;;;;;;;;20.69;46.09;96642.66;1049160;28;1219;-53
2021/09/30 00:35:16;;;;;;;;;;;;;;;20.68;46.23;96647.13;1049280;28;1238;-54
2021/09/30 00:46:08;;;;;;;;;;;;;;;20.68;46.05;96648.97;1039156;28;1613;-52
2021/09/30 00:46:41;;;;;;;;;;;;;;;20.68;46.01;96657.66;1049484;28;1442;-51
2021/09/30 00:50:23;;;;;;;;;;;;;;;20.67;45.99;96645.53;1052161;28;1229;-53
2021/09/30 00:51:44;;;;;;;;;;;;;;;20.68;46.07;96651.59;1048566;28;1079;-52
2021/09/30 00:53:36;;;;;;;;;;;;;;;20.67;46.17;96647.41;1050708;28;2011;-56
2021/09/30 00:56:03;;;;;;;;;;;;;;;20.67;45.83;96645.53;1048257;28;1118;-53
2021/09/30 01:24:44;;;;;;;;;;;;;;;20.59;45.70;96664.44;1051427;28;1699;-53
2021/09/30 01:25:55;;;;;;;;;;;;;;;20.60;45.81;96671.31;1045830;28;1461;-54
2021/09/30 02:19:06;;;;;;;;;;;;;;;20.60;45.53;96717.91;1046750;28;1922;-56
2021/09/30 02:22:37;;;;;;;;;;;;;;;20.60;45.49;96708.19;1041563;28;1146;-52
2021/09/30 02:39:04;;;;;;;;;;;;;;;20.59;45.41;96722.38;1052905;28;1228;-54
2021/09/30 02:58:32;;;;;;;;;;;;;;;20.62;45.59;96745.63;1048617;28;1111;-53
2021/09/30 02:59:07;;;;;;;;;;;;;;;20.61;45.68;96736.09;1051794;28;1967;-53
2021/09/30 02:59:37;;;;;;;;;;;;;;;20.62;45.43;96737.72;1049203;28;1344;-51
2021/09/30 03:00:08;;;;;;;;;;;;;;;20.61;45.59;96738.75;1045881;28;1139;-55
2021/09/30 03:00:40;;;;;;;;;;;;;;;20.62;45.31;96748.25;1045986;28;1342;-56
2021/09/30 03:01:14;;;;;;;;;;;;;;;20.62;45.67;96748.25;1047281;28;1362;-55
2021/09/30 03:01:45;;;;;;;;;;;;;;;20.62;45.64;96735.06;1050047;28;1898;-55
2021/09/30 03:02:16;;;;;;;;;;;;;;;20.61;45.34;96736.09;1052621;28;1122;-51
2021/09/30 03:02:46;;;;;;;;;;;;;;;20.61;45.52;96737.97;1044198;28;1418;-55
2021/09/30 03:03:17;;;;;;;;;;;;;;;20.61;45.36;96736.09;1042655;28;1115;-53
2021/09/30 03:03:47;;;;;;;;;;;;;;;20.62;45.62;96737.72;1037767;28;1554;-51
2021/09/30 03:04:17;;;;;;;;;;;;;;;20.62;45.53;96737.72;1042472;28;1084;-55
2021/09/30 03:04:48;;;;;;;;;;;;;;;20.62;45.32;96739.53;1044069;28;1115;-56
2021/09/30 03:05:19;;;;;;;;;;;;;;;20.62;45.37;96742.19;1039839;28;1375;-54
2021/09/30 03:05:56;;;;;;;;;;;;;;;20.62;45.62;96739.53;1044575;28;1170;-53
2021/09/30 03:06:26;;;;;;;;;;;;;;;20.62;45.32;96739.53;1044357;28;1881;-55
2021/09/30 03:06:57;;;;;;;;;;;;;;;20.63;45.32;96746.41;1041584;28;1652;-54
2021/09/30 03:07:27;;;;;;;;;;;;;;;20.62;45.60;96740.34;1042581;28;1187;-55
2021/09/30 03:07:58;;;;;;;;;;;;;;;20.61;45.39;96738.75;1038796;28;1661;-51
2021/09/30 03:08:28;;;;;;;;;;;;;;;20.61;45.60;96738.75;1040068;28;1206;-54
2021/09/30 03:09:00;;;;;;;;;;;;;;;20.61;45.34;96736.09;1040332;28;1097;-52
2021/09/30 03:09:38;;;;;;;;;;;;;;;20.62;45.45;96736.91;1040677;28;1325;-54
2021/09/30 03:10:08;;;;;;;;;;;;;;;20.62;45.57;96737.72;1041636;28;1072;-56
2021/09/30 03:10:40;;;;;;;;;;;;;;;20.63;45.58;96744.56;1043492;28;1453;-53
2021/09/30 03:11:10;;;;;;;;;;;;;;;20.62;45.53;96734.28;1042732;28;1095;-52
2021/09/30 03:11:41;;;;;;;;;;;;;;;20.62;45.29;96740.34;1043647;28;1937;-53
2021/09/30 03:12:29;;;;;;;;;;;;;;;20.63;45.53;96735.88;1042477;28;1406;-54
2021/09/30 03:12:59;;;;;;;;;;;;;;;20.63;45.59;96744.56;1043656;28;1366;-55
2021/09/30 03:13:30;;;;;;;;;;;;;;;20.64;45.51;96745.34;1043101;28;1897;-53
2021/09/30 03:14:00;;;;;;;;;;;;;;;20.63;45.53;96744.56;1047132;28;1951;-53
2021/09/30 03:14:32;;;;;;;;;;;;;;;20.63;45.38;96749.06;1039922;28;907;-55
2021/09/30 03:15:30;;;;;;;;;;;;;;;20.62;45.59;96748.25;1039627;28;1085;-52
2021/09/30 03:16:07;;;;;;;;;;;;;;;20.62;45.57;96742.97;1046836;28;1401;-55
2021/09/30 03:17:07;;;;;;;;;;;;;;;20.61;45.76;96738.75;1051945;28;1268;-52
2021/09/30 03:17:48;;;;;;;;;;;;;;;20.61;45.48;96743.25;1043227;28;1015;-53
2021/09/30 03:18:30;;;;;;;;;;;;;;;20.61;45.48;96743.25;1045858;28;1150;-53
2021/09/30 03:19:03;;;;;;;;;;;;;;;20.62;45.65;96747.44;1043453;28;1914;-56
2021/09/30 03:19:50;;;;;;;;;;;;;;;20.62;45.38;96747.44;1040253;28;1303;-53
2021/09/30 03:22:18;;;;;;;;;;;;;;;20.61;45.40;96744.00;1042894;28;1053;-52
2021/09/30 03:22:48;;;;;;;;;;;;;;;20.61;45.56;96751.13;1047537;28;1010;-49
2021/09/30 03:23:21;;;;;;;;;;;;;;;20.60;45.54;96747.69;1046384;28;1193;-53
2021/09/30 03:23:52;;;;;;;;;;;;;;;20.60;45.59;96750.34;1045680;28;1527;-55
2021/09/30 03:24:22;;;;;;;;;;;;;;;20.60;45.67;96744.25;1043547;28;1455;-56
2021/09/30 03:24:52;;;;;;;;;;;;;;;20.60;45.59;96747.69;1044694;28;886;-56
2021/09/30 03:25:23;;;;;;;;;;;;;;;20.61;45.40;96745.88;1048140;28;1170;-55
2021/09/30 03:25:53;;;;;;;;;;;;;;;20.61;45.50;96746.66;1042095;28;1429;-56
2021/09/30 03:26:25;;;;;;;;;;;;;;;20.61;45.56;96751.13;1044230;28;1110;-54
2021/09/30 03:26:55;;;;;;;;;;;;;;;20.60;45.45;96750.34;1039364;28;2008;-54
2021/09/30 03:27:26;;;;;;;;;;;;;;;20.59;45.35;96759.28;1044649;28;1203;-54
2021/09/30 03:27:56;;;;;;;;;;;;;;;20.59;45.57;96756.63;1048123;28;1044;-53
2021/09/30 03:28:26;;;;;;;;;;;;;;;20.59;45.45;96748.72;1044811;28;1129;-51
2021/09/30 03:28:57;;;;;;;;;;;;;;;20.59;45.46;96754.00;1048466;28;1103;-52
2021/09/30 03:29:27;;;;;;;;;;;;;;;20.59;45.44;96753.19;1048719;28;1150;-56
2021/09/30 03:29:57;;;;;;;;;;;;;;;20.59;45.45;96753.19;1047317;28;1107;-55
2021/09/30 03:30:28;;;;;;;;;;;;;;;20.59;45.52;96754.00;1051109;28;1870;-53
2021/09/30 03:30:59;;;;;;;;;;;;;;;20.59;45.59;96748.72;1052901;28;1048;-54
2021/09/30 03:31:30;;;;;;;;;;;;;;;20.58;45.29;96747.16;1052693;28;1153;-53
2021/09/30 03:32:00;;;;;;;;;;;;;;;20.58;45.27;96746.34;1045190;28;2107;-54
2021/09/30 03:32:30;;;;;;;;;;;;;;;20.58;45.43;96749.00;1044196;28;1149;-53
2021/09/30 03:33:02;;;;;;;;;;;;;;;20.59;45.39;96753.19;1043527;28;1092;-51
2021/09/30 03:33:33;;;;;;;;;;;;;;;20.58;45.27;96752.44;1048648;28;1357;-55
2021/09/30 03:34:03;;;;;;;;;;;;;;;20.58;45.36;96749.00;1050792;28;1128;-55
2021/09/30 03:34:34;;;;;;;;;;;;;;;20.57;45.47;96753.47;1052642;28;1517;-53
2021/09/30 03:35:04;;;;;;;;;;;;;;;20.58;45.32;96755.06;1050854;28;1246;-52
2021/09/30 03:35:35;;;;;;;;;;;;;;;20.58;45.24;96751.63;1051296;28;1361;-55
2021/09/30 03:36:06;;;;;;;;;;;;;;;20.57;45.28;96753.47;1051895;28;1140;-55
2021/09/30 03:36:37;;;;;;;;;;;;;;;20.57;45.24;96750.81;1050617;28;1974;-55
2021/09/30 03:37:07;;;;;;;;;;;;;;;20.57;45.26;96750.81;1052623;28;1216;-54
2021/09/30 03:37:37;;;;;;;;;;;;;;;20.58;45.28;96741.88;1051950;28;1515;-52
2021/09/30 03:38:08;;;;;;;;;;;;;;;20.58;45.35;96747.16;1051186;28;1616;-56
2021/09/30 03:38:38;;;;;;;;;;;;;;;20.58;45.34;96749.00;1047381;28;1909;-56
2021/09/30 03:39:13;;;;;;;;;;;;;;;20.57;45.27;96756.09;1047532;28;1888;-56
2021/09/30 03:39:44;;;;;;;;;;;;;;;20.58;45.47;96746.34;1049258;28;1177;-57
2021/09/30 03:40:14;;;;;;;;;;;;;;;20.57;45.47;96745.56;1051713;28;1122;-56
2021/09/30 03:40:44;;;;;;;;;;;;;;;20.57;45.30;96747.38;1050904;28;1501;-52
2021/09/30 03:41:14;;;;;;;;;;;;;;;20.57;45.32;96750.81;1051222;28;1433;-56
2021/09/30 03:41:45;;;;;;;;;;;;;;;20.57;45.40;96747.38;1048965;28;1990;-53
2021/09/30 03:42:16;;;;;;;;;;;;;;;20.56;45.30;96749.25;1054593;28;1118;-53
2021/09/30 03:42:46;;;;;;;;;;;;;;;20.58;45.45;96751.63;1054807;28;1424;-57
2021/09/30 03:43:19;;;;;;;;;;;;;;;20.56;45.39;96751.88;1051238;28;1218;-54
2021/09/30 03:43:49;;;;;;;;;;;;;;;20.55;45.51;96742.38;1049910;28;1861;-55
2021/09/30 03:44:20;;;;;;;;;;;;;;;20.56;45.43;96751.88;1052225;28;1161;-53
2021/09/30 03:44:50;;;;;;;;;;;;;;;20.54;45.62;96751.34;1051433;28;1212;-54
2021/09/30 03:45:20;;;;;;;;;;;;;;;20.55;45.40;96752.09;1050036;28;1291;-55
2021/09/30 03:45:51;;;;;;;;;;;;;;;20.55;45.38;96744.19;1045893;28;1111;-56
2021/09/30 03:46:21;;;;;;;;;;;;;;;20.55;45.29;96747.66;1048432;28;1186;-55
2021/09/30 03:46:52;;;;;;;;;;;;;;;20.54;45.48;96746.06;1049641;28;1895;-55
2021/09/30 03:47:23;;;;;;;;;;;;;;;20.54;45.41;96745.25;1051925;28;1224;-50
2021/09/30 03:47:53;;;;;;;;;;;;;;;20.55;45.44;96747.66;1049208;28;1614;-53
2021/09/30 03:48:24;;;;;;;;;;;;;;;20.53;45.16;96744.47;1051811;28;1143;-53
2021/09/30 03:48:56;;;;;;;;;;;;;;;20.54;45.63;96745.25;1050652;28;1062;-56
2021/09/30 03:49:34;;;;;;;;;;;;;;;20.54;45.35;96753.16;1052296;28;1134;-54
2021/09/30 03:50:07;;;;;;;;;;;;;;;20.53;45.54;96743.66;1052057;28;1231;-56
2021/09/30 03:50:54;;;;;;;;;;;;;;;20.53;45.41;96749.72;1050819;28;1329;-54
2021/09/30 03:52:03;;;;;;;;;;;;;;;20.53;45.27;96746.28;1051672;28;2114;-54
2021/09/30 03:52:40;;;;;;;;;;;;;;;20.52;45.21;96747.34;1048064;28;1679;-53
2021/09/30 03:53:19;;;;;;;;;;;;;;;20.51;45.21;96751.00;1050381;28;1054;-53
2021/09/30 03:53:59;;;;;;;;;;;;;;;20.51;45.52;96754.44;1049347;28;1312;-54
2021/09/30 03:55:54;;;;;;;;;;;;;;;20.50;45.19;96758.16;1051442;28;1033;-54
2021/09/30 03:56:36;;;;;;;;;;;;;;;20.51;45.39;96758.91;1052569;28;1299;-55
2021/09/30 03:57:49;;;;;;;;;;;;;;;20.51;45.22;96756.28;1051684;28;1149;-56
2021/09/30 03:59:21;;;;;;;;;;;;;;;20.51;45.23;96756.28;1051702;28;1064;-57
2021/09/30 03:59:51;;;;;;;;;;;;;;;20.51;45.29;96754.44;1050216;28;1127;-56
2021/09/30 04:00:21;;;;;;;;;;;;;;;20.50;45.15;96758.16;1050827;28;1180;-56
2021/09/30 04:00:52;;;;;;;;;;;;;;;20.51;45.35;96762.34;1052537;28;992;-55
2021/09/30 04:01:22;;;;;;;;;;;;;;;20.50;45.11;96755.50;1052756;28;1103;-57
2021/09/30 04:02:00;;;;;;;;;;;;;;;20.51;45.17;96762.34;1051009;28;1957;-57
2021/09/30 04:02:30;;;;;;;;;;;;;;;20.51;45.13;96762.34;1048580;28;1114;-54
2021/09/30 04:03:01;;;;;;;;;;;;;;;20.52;45.15;96755.25;1050256;28;1051;-54
2021/09/30 04:03:31;;;;;;;;;;;;;;;20.51;44.99;96757.09;1051250;28;1208;-54
2021/09/30 04:04:01;;;;;;;;;;;;;;;20.51;45.10;96764.19;1050849;28;1044;-56
2021/09/30 04:04:32;;;;;;;;;;;;;;;20.51;45.08;96762.34;1052224;28;1092;-56
2021/09/30 04:05:03;;;;;;;;;;;;;;;20.51;45.22;96757.09;1052941;28;1068;-53
2021/09/30 04:05:33;;;;;;;;;;;;;;;20.51;45.02;96762.34;1049520;28;1871;-54
2021/09/30 04:06:04;;;;;;;;;;;;;;;20.51;45.06;96754.44;1050967;28;1455;-54
2021/09/30 04:06:34;;;;;;;;;;;;;;;20.51;45.02;96754.44;1044433;28;1462;-55
2021/09/30 04:07:06;;;;;;;;;;;;;;;20.52;45.18;96757.88;1045645;28;1964;-56
2021/09/30 04:07:36;;;;;;;;;;;;;;;20.51;45.03;96756.28;1048305;28;1381;-56
2021/09/30 04:08:06;;;;;;;;;;;;;;;20.51;45.02;96757.09;1052171;28;1116;-56
2021/09/30 04:08:37;;;;;;;;;;;;;;;20.51;45.00;96757.09;1051006;28;1193;-54
2021/09/30 04:09:09;;;;;;;;;;;;;;;20.50;45.17;96759.97;1050921;28;1092;-55
2021/09/30 04:09:39;;;;;;;;;;;;;;;20.52;45.10;96760.53;1052952;28;986;-56
2021/09/30 04:10:10;;;;;;;;;;;;;;;20.51;45.16;96759.72;1051239;28;1174;-54
2021/09/30 04:10:40;;;;;;;;;;;;;;;20.51;45.04;96758.91;1046268;28;1348;-52
2021/09/30 04:11:11;;;;;;;;;;;;;;;20.51;45.10;96751.81;1047067;28;1639;-55
2021/09/30 04:11:43;;;;;;;;;;;;;;;20.50;45.03;96755.50;1044031;28;1427;-56
2021/09/30 04:12:14;;;;;;;;;;;;;;;20.51;45.18;96759.72;1042996;28;2389;-49
2021/09/30 04:12:44;;;;;;;;;;;;;;;20.51;45.17;96757.09;1046578;28;1405;-51
2021/09/30 04:13:15;;;;;;;;;;;;;;;20.51;45.21;96762.34;1048566;28;1214;-53
2021/09/30 04:13:46;;;;;;;;;;;;;;;20.50;45.02;96755.50;1051625;28;1567;-54
2021/09/30 04:14:16;;;;;;;;;;;;;;;20.50;45.03;96758.16;1052847;28;1217;-55
2021/09/30 04:14:47;;;;;;;;;;;;;;;20.50;45.33;96763.41;1052809;28;1096;-56
2021/09/30 04:15:17;;;;;;;;;;;;;;;20.50;45.06;96760.78;1051539;28;1173;-56
2021/09/30 04:15:50;;;;;;;;;;;;;;;20.50;45.11;96760.78;1049601;28;1343;-56
2021/09/30 04:16:20;;;;;;;;;;;;;;;20.50;45.02;96763.41;1052984;28;1209;-53
2021/09/30 04:16:51;;;;;;;;;;;;;;;20.49;44.94;96759.19;1050334;28;1823;-56
2021/09/30 04:17:21;;;;;;;;;;;;;;;20.50;44.92;96757.34;1051692;28;1371;-56
2021/09/30 04:17:51;;;;;;;;;;;;;;;20.50;45.10;96762.59;1051620;28;1031;-54
2021/09/30 04:18:22;;;;;;;;;;;;;;;20.51;45.06;96766.81;1053046;28;1117;-54
2021/09/30 04:18:52;;;;;;;;;;;;;;;20.50;45.28;96766.03;1051720;28;2027;-54
2021/09/30 04:19:23;;;;;;;;;;;;;;;20.49;44.97;96764.44;1051454;28;1134;-52
2021/09/30 04:19:53;;;;;;;;;;;;;;;20.49;45.07;96764.44;1051701;28;1353;-55
2021/09/30 04:20:23;;;;;;;;;;;;;;;20.49;45.07;96764.44;1049438;28;1128;-54
2021/09/30 04:20:54;;;;;;;;;;;;;;;20.49;45.19;96771.53;1050407;28;1557;-52
2021/09/30 04:21:24;;;;;;;;;;;;;;;20.48;45.07;96768.13;1050863;28;1137;-56
2021/09/30 04:21:55;;;;;;;;;;;;;;;20.48;44.97;96757.59;1048972;28;1919;-55
2021/09/30 04:22:25;;;;;;;;;;;;;;;20.48;45.02;96768.13;1052756;28;1122;-56
2021/09/30 04:22:55;;;;;;;;;;;;;;;20.48;45.24;96773.41;1052970;28;1000;-52
2021/09/30 04:23:25;;;;;;;;;;;;;;;20.48;44.98;96781.31;1052958;28;1106;-56
2021/09/30 04:23:56;;;;;;;;;;;;;;;20.48;44.94;96772.59;1048741;28;1271;-53
2021/09/30 04:24:27;;;;;;;;;;;;;;;20.48;44.98;96777.88;1052403;28;1110;-54
2021/09/30 04:24:57;;;;;;;;;;;;;;;20.47;45.02;96771.78;1052329;28;1523;-53
2021/09/30 04:25:28;;;;;;;;;;;;;;;20.48;45.12;96773.41;1051481;28;1137;-55
2021/09/30 04:25:58;;;;;;;;;;;;;;;20.48;45.17;96777.88;1050992;28;1068;-55
2021/09/30 04:26:28;;;;;;;;;;;;;;;20.48;45.09;96773.41;1052542;28;1130;-55
2021/09/30 04:26:59;;;;;;;;;;;;;;;20.48;44.88;96775.22;1051031;28;2109;-52
2021/09/30 04:27:29;;;;;;;;;;;;;;;20.48;44.91;96777.88;1052535;28;1158;-55
2021/09/30 04:27:59;;;;;;;;;;;;;;;20.48;45.01;96781.31;1052413;28;1051;-57
2021/09/30 04:28:29;;;;;;;;;;;;;;;20.48;45.12;96778.66;1050649;28;975;-57
2021/09/30 04:29:00;;;;;;;;;;;;;;;20.48;45.16;96772.59;1050014;28;1120;-56
2021/09/30 04:29:30;;;;;;;;;;;;;;;20.48;44.98;96770.78;1052638;28;1205;-53
2021/09/30 04:30:01;;;;;;;;;;;;;;;20.48;44.93;96773.41;1052230;28;1040;-55
2021/09/30 04:30:31;;;;;;;;;;;;;;;20.49;45.10;96774.19;1049464;28;1895;-51
2021/09/30 04:31:01;;;;;;;;;;;;;;;20.49;45.22;96771.53;1051726;28;1001;-56
2021/09/30 04:31:32;;;;;;;;;;;;;;;20.49;45.01;96774.19;1052670;28;1426;-56
2021/09/30 04:32:02;;;;;;;;;;;;;;;20.49;44.95;96776.81;1050223;28;1946;-56
2021/09/30 04:32:33;;;;;;;;;;;;;;;20.49;44.94;96774.19;1051925;28;760;-54
2021/09/30 04:33:03;;;;;;;;;;;;;;;20.48;44.96;96778.66;1052026;28;1036;-54
2021/09/30 04:33:34;;;;;;;;;;;;;;;20.49;45.05;96779.44;1050373;28;1196;-54
2021/09/30 04:34:04;;;;;;;;;;;;;;;20.48;44.97;96783.94;1051200;28;1416;-50
2021/09/30 04:34:34;;;;;;;;;;;;;;;20.49;44.96;96780.25;1050457;28;1436;-52
2021/09/30 04:35:05;;;;;;;;;;;;;;;20.48;44.95;96776.03;1050545;28;1459;-55
2021/09/30 04:35:35;;;;;;;;;;;;;;;20.49;45.11;96776.81;1048869;28;1194;-55
2021/09/30 04:36:06;;;;;;;;;;;;;;;20.48;44.97;96781.31;1052090;28;1076;-53
2021/09/30 04:36:36;;;;;;;;;;;;;;;20.48;45.09;96785.75;1050856;28;1121;-54
2021/09/30 04:37:06;;;;;;;;;;;;;;;20.47;45.04;96784.97;1050343;28;1927;-56
2021/09/30 04:37:37;;;;;;;;;;;;;;;20.47;45.17;96787.59;1052289;28;1488;-55
2021/09/30 04:38:10;;;;;;;;;;;;;;;20.47;45.11;96790.22;1051807;28;963;-55
2021/09/30 04:38:40;;;;;;;;;;;;;;;20.46;45.24;96780.75;1048624;28;1902;-54
2021/09/30 04:39:11;;;;;;;;;;;;;;;20.47;45.02;96786.78;1053854;28;1211;-54
2021/09/30 04:39:42;;;;;;;;;;;;;;;20.47;44.96;96786.78;1053322;28;1098;-52
2021/09/30 04:40:12;;;;;;;;;;;;;;;20.47;45.05;96776.25;1050627;28;1231;-54
2021/09/30 04:40:43;;;;;;;;;;;;;;;20.46;45.24;96783.38;1050789;28;1592;-56
2021/09/30 04:41:13;;;;;;;;;;;;;;;20.47;45.27;96784.16;1053912;28;1142;-56
2021/09/30 04:41:44;;;;;;;;;;;;;;;20.46;45.14;96786.03;1050143;28;1396;-56
2021/09/30 04:42:14;;;;;;;;;;;;;;;20.46;45.14;96785.22;1052811;28;1934;-51
2021/09/30 04:42:45;;;;;;;;;;;;;;;20.46;45.27;96783.38;1050571;28;1397;-56
2021/09/30 04:43:15;;;;;;;;;;;;;;;20.46;45.10;96786.03;1053093;28;1183;-54
2021/09/30 04:43:45;;;;;;;;;;;;;;;20.46;45.26;96785.22;1052767;28;1614;-58
2021/09/30 04:44:16;;;;;;;;;;;;;;;20.45;45.08;96794.94;1053566;28;1114;-54
2021/09/30 04:44:46;;;;;;;;;;;;;;;20.45;45.19;96787.06;1052448;28;1153;-51
2021/09/30 04:45:16;;;;;;;;;;;;;;;20.44;45.14;96789.94;1051755;28;1445;-52
2021/09/30 04:45:48;;;;;;;;;;;;;;;20.45;45.35;96784.41;1050884;28;1634;-54
2021/09/30 04:46:20;;;;;;;;;;;;;;;20.43;45.21;96791.78;1052493;28;1133;-51
2021/09/30 04:46:50;;;;;;;;;;;;;;;20.44;45.19;96788.09;1050260;28;1370;-55
2021/09/30 04:47:20;;;;;;;;;;;;;;;20.45;45.32;96794.94;1051445;28;1927;-54
2021/09/30 04:47:51;;;;;;;;;;;;;;;20.45;45.03;96788.88;1049028;28;1064;-52
2021/09/30 04:48:21;;;;;;;;;;;;;;;20.46;45.25;96790.50;1052232;28;1122;-53
2021/09/30 04:48:51;;;;;;;;;;;;;;;20.45;45.19;96789.69;1053013;28;1177;-54
2021/09/30 04:49:22;;;;;;;;;;;;;;;20.46;44.96;96796.56;1053707;28;1121;-55
2021/09/30 04:49:52;;;;;;;;;;;;;;;20.44;45.08;96790.75;1051542;28;1134;-56
2021/09/30 04:50:22;;;;;;;;;;;;;;;20.45;45.03;96789.69;1052580;28;1197;-55
2021/09/30 04:50:53;;;;;;;;;;;;;;;20.46;45.08;96796.56;1051317;28;1220;-52
2021/09/30 04:51:23;;;;;;;;;;;;;;;20.46;45.21;96790.50;1049853;28;1686;-53
2021/09/30 04:51:53;;;;;;;;;;;;;;;20.46;45.14;96791.28;1050518;28;1032;-57
2021/09/30 04:52:24;;;;;;;;;;;;;;;20.46;45.09;96796.56;1050970;28;2216;-57
2021/09/30 04:53:00;;;;;;;;;;;;;;;20.46;45.11;96795.75;1050857;28;1696;-55
2021/09/30 04:53:30;;;;;;;;;;;;;;;20.44;44.99;96793.38;1051968;28;1156;-55
2021/09/30 04:54:01;;;;;;;;;;;;;;;20.43;44.95;96790.97;1050368;28;1427;-55
2021/09/30 04:54:31;;;;;;;;;;;;;;;20.42;45.13;96790.19;1051275;28;1193;-52
2021/09/30 04:55:19;;;;;;;;;;;;;;;20.42;45.08;96790.19;1051194;28;1544;-54
2021/09/30 04:55:49;;;;;;;;;;;;;;;20.43;45.18;96791.78;1050490;28;1473;-53
2021/09/30 04:56:20;;;;;;;;;;;;;;;20.43;45.19;96794.41;1052548;28;1172;-56
2021/09/30 04:56:50;;;;;;;;;;;;;;;20.43;45.09;96791.78;1053521;28;964;-52
2021/09/30 04:57:21;;;;;;;;;;;;;;;20.43;45.15;96794.41;1052118;28;1970;-53
2021/09/30 04:57:51;;;;;;;;;;;;;;;20.43;45.05;96790.97;1053237;28;1262;-49
2021/09/30 04:58:21;;;;;;;;;;;;;;;20.42;44.99;96792.84;1052543;28;1186;-52
2021/09/30 04:58:52;;;;;;;;;;;;;;;20.43;45.11;96797.03;1052615;28;2050;-53
2021/09/30 04:59:22;;;;;;;;;;;;;;;20.43;45.18;96791.78;1051729;28;1102;-53
2021/09/30 04:59:55;;;;;;;;;;;;;;;20.42;45.08;96792.84;1050308;28;1251;-56
2021/09/30 05:00:25;;;;;;;;;;;;;;;20.43;45.11;96794.41;1050066;28;1548;-55
2021/09/30 05:00:56;;;;;;;;;;;;;;;20.43;45.00;96793.59;1050312;28;1068;-52
2021/09/30 05:01:26;;;;;;;;;;;;;;;20.43;45.12;96796.25;1053021;28;1480;-56
2021/09/30 05:01:56;;;;;;;;;;;;;;;20.43;45.23;96799.66;1051140;28;1911;-55
2021/09/30 05:02:27;;;;;;;;;;;;;;;20.43;45.21;96797.03;1052509;28;2402;-54
2021/09/30 05:02:57;;;;;;;;;;;;;;;20.42;45.26;96792.84;1051467;28;1649;-54
2021/09/30 05:03:27;;;;;;;;;;;;;;;20.43;45.15;96797.03;1053698;28;1142;-56
2021/09/30 05:03:58;;;;;;;;;;;;;;;20.44;45.10;96798.66;1053064;28;1303;-55
2021/09/30 05:04:28;;;;;;;;;;;;;;;20.43;45.14;96793.59;1049200;28;1216;-55
2021/09/30 05:04:58;;;;;;;;;;;;;;;20.43;45.14;96790.97;1052105;28;1135;-55
2021/09/30 05:05:28;;;;;;;;;;;;;;;20.43;44.93;96789.13;1051648;28;1141;-54
2021/09/30 05:05:59;;;;;;;;;;;;;;;20.42;45.14;96790.19;1052101;28;1228;-54
2021/09/30 05:06:29;;;;;;;;;;;;;;;20.41;44.95;96787.78;1051423;28;1286;-51
2021/09/30 05:06:59;;;;;;;;;;;;;;;20.41;45.19;96791.22;1051844;28;1898;-53
2021/09/30 05:07:30;;;;;;;;;;;;;;;20.40;45.20;96794.13;1053071;28;1352;-54
2021/09/30 05:08:00;;;;;;;;;;;;;;;20.40;45.21;96791.47;1047816;28;1586;-53
2021/09/30 05:08:33;;;;;;;;;;;;;;;20.39;45.02;96784.59;1049176;28;852;-55
2021/09/30 05:09:04;;;;;;;;;;;;;;;20.39;45.05;96784.59;1050729;28;1155;-51
2021/09/30 05:09:34;;;;;;;;;;;;;;;20.39;45.02;96795.13;1051579;28;1380;-55
2021/09/30 05:10:06;;;;;;;;;;;;;;;20.37;45.11;96787.50;1052545;28;1080;-55
2021/09/30 05:10:37;;;;;;;;;;;;;;;20.38;45.02;96788.28;1052186;28;1177;-50
2021/09/30 05:11:07;;;;;;;;;;;;;;;20.38;45.05;96786.44;1053662;28;1084;-55
2021/09/30 05:11:46;;;;;;;;;;;;;;;20.40;44.99;96791.47;1049900;28;1346;-56
2021/09/30 05:12:17;;;;;;;;;;;;;;;20.39;45.09;96790.69;1049900;28;2088;-51
2021/09/30 05:12:49;;;;;;;;;;;;;;;20.39;45.19;96789.88;1050085;28;898;-57
2021/09/30 05:13:25;;;;;;;;;;;;;;;20.40;44.99;96791.47;1052411;28;1862;-52
2021/09/30 05:13:57;;;;;;;;;;;;;;;20.39;45.18;96788.03;1052379;28;1060;-56
2021/09/30 05:14:28;;;;;;;;;;;;;;;20.39;45.23;96790.69;1052482;28;1775;-56
2021/09/30 05:14:58;;;;;;;;;;;;;;;20.39;45.11;96793.31;1053357;28;1068;-54
2021/09/30 05:15:28;;;;;;;;;;;;;;;20.40;45.15;96786.22;1052270;28;1193;-52
2021/09/30 05:15:59;;;;;;;;;;;;;;;20.42;45.22;96794.66;1051406;28;1473;-54
2021/09/30 05:16:29;;;;;;;;;;;;;;;20.40;45.01;96792.28;1053456;28;1173;-53
2021/09/30 05:16:59;;;;;;;;;;;;;;;20.41;45.22;96793.06;1052684;28;1457;-56
2021/09/30 05:17:30;;;;;;;;;;;;;;;20.41;44.96;96793.06;1048908;28;1560;-55
2021/09/30 05:18:00;;;;;;;;;;;;;;;20.40;45.01;96789.66;1050769;28;1537;-56
2021/09/30 05:18:30;;;;;;;;;;;;;;;20.41;44.98;96791.22;1049032;28;894;-51
2021/09/30 05:19:01;;;;;;;;;;;;;;;20.40;45.33;96789.66;1048927;28;1906;-56
2021/09/30 05:19:31;;;;;;;;;;;;;;;20.40;45.08;96792.28;1053419;28;803;-54
2021/09/30 05:20:02;;;;;;;;;;;;;;;20.39;45.21;96785.41;1053471;28;1063;-52
2021/09/30 05:20:32;;;;;;;;;;;;;;;20.40;45.12;96787.00;1050590;28;1201;-51
2021/09/30 05:21:02;;;;;;;;;;;;;;;20.40;45.24;96797.53;1052450;28;1044;-52
2021/09/30 05:21:33;;;;;;;;;;;;;;;20.40;44.97;96791.47;1053632;28;866;-55
2021/09/30 05:22:04;;;;;;;;;;;;;;;20.39;45.02;96780.13;1050955;28;1880;-57
2021/09/30 05:22:34;;;;;;;;;;;;;;;20.39;45.02;96785.41;1052405;28;1618;-54
2021/09/30 05:23:04;;;;;;;;;;;;;;;20.40;44.99;96789.66;1053567;28;1064;-55
2021/09/30 05:23:35;;;;;;;;;;;;;;;20.40;45.14;96787.00;1052362;28;1171;-56
2021/09/30 05:24:05;;;;;;;;;;;;;;;20.41;45.08;96791.22;1050516;28;1072;-54
2021/09/30 05:24:35;;;;;;;;;;;;;;;20.40;45.09;96792.28;1053007;28;709;-57
2021/09/30 05:25:06;;;;;;;;;;;;;;;20.39;45.01;96790.69;1051876;28;1926;-51
2021/09/30 05:25:36;;;;;;;;;;;;;;;20.40;45.03;96794.91;1049445;28;1377;-56
2021/09/30 05:26:07;;;;;;;;;;;;;;;20.41;44.95;96790.41;1052405;28;1377;-53
2021/09/30 05:26:37;;;;;;;;;;;;;;;20.39;45.07;96789.88;1049089;28;1612;-53
2021/09/30 05:27:07;;;;;;;;;;;;;;;20.40;45.18;96791.47;1049597;28;1935;-56
2021/09/30 05:27:37;;;;;;;;;;;;;;;20.38;45.22;96789.06;1053150;28;1050;-50
2021/09/30 05:28:08;;;;;;;;;;;;;;;20.38;45.30;96788.28;1053570;28;1084;-54
2021/09/30 05:28:38;;;;;;;;;;;;;;;20.38;45.02;96788.28;1050375;28;1141;-55